sensor_id;sensor_type;location;lat;lon;timestamp;P1;durP1;ratioP1;P2;durP2;ratioP2
19804;SDS011;10062;51.052;13.756;2022-09-12T00:00:29;17.27;;;12.17;;
19804;SDS011;10062;51.052;13.756;2022-09-12T00:03:01;17.80;;;11.37;;
19804;SDS011;10062;51.052;13.756;2022-09-12T00:05:33;16.97;;;11.77;;
19804;SDS011;10062;51.052;13.756;2022-09-12T00:08:04;18.60;;;12.33;;
19804;SDS011;10062;51.052;13.756;2022-09-12T00:10:37;21.00;;;13.10;;
19804;SDS011;10062;51.052;13.756;2022-09-12T00:13:09;19.17;;;12.93;;
19804;SDS011;10062;51.052;13.756;2022-09-12T00:15:43;21.83;;;14.13;;
19804;SDS011;10062;51.052;13.756;2022-09-12T00:18:15;23.43;;;13.80;;
19804;SDS011;10062;51.052;13.756;2022-09-12T00:20:47;20.87;;;13.77;;
19804;SDS011;10062;51.052;13.756;2022-09-12T00:23:19;19.07;;;13.70;;
19804;SDS011;10062;51.052;13.756;2022-09-12T00:25:51;18.80;;;12.93;;
19804;SDS011;10062;51.052;13.756;2022-09-12T00:28:22;22.50;;;14.83;;
19804;SDS011;10062;51.052;13.756;2022-09-12T00:30:55;17.80;;;13.30;;
19804;SDS011;10062;51.052;13.756;2022-09-12T00:33:27;21.37;;;13.40;;
19804;SDS011;10062;51.052;13.756;2022-09-12T00:35:58;19.63;;;12.37;;
19804;SDS011;10062;51.052;13.756;2022-09-12T00:38:34;21.70;;;13.57;;
19804;SDS011;10062;51.052;13.756;2022-09-12T00:41:09;23.30;;;13.77;;
19804;SDS011;10062;51.052;13.756;2022-09-12T00:43:47;20.40;;;13.60;;
19804;SDS011;10062;51.052;13.756;2022-09-12T00:46:29;21.43;;;12.80;;
19804;SDS011;10062;51.052;13.756;2022-09-12T00:49:11;19.43;;;12.73;;
19804;SDS011;10062;51.052;13.756;2022-09-12T00:51:46;21.27;;;14.03;;
19804;SDS011;10062;51.052;13.756;2022-09-12T00:54:23;20.13;;;13.17;;
19804;SDS011;10062;51.052;13.756;2022-09-12T00:57:01;23.80;;;14.43;;
19804;SDS011;10062;51.052;13.756;2022-09-12T00:59:37;22.33;;;13.73;;
19804;SDS011;10062;51.052;13.756;2022-09-12T01:02:14;21.53;;;13.90;;
19804;SDS011;10062;51.052;13.756;2022-09-12T01:04:46;20.13;;;13.07;;
19804;SDS011;10062;51.052;13.756;2022-09-12T01:07:19;26.30;;;15.33;;
19804;SDS011;10062;51.052;13.756;2022-09-12T01:09:51;23.50;;;14.27;;
19804;SDS011;10062;51.052;13.756;2022-09-12T01:12:23;21.80;;;14.67;;
19804;SDS011;10062;51.052;13.756;2022-09-12T01:14:55;25.37;;;14.93;;
19804;SDS011;10062;51.052;13.756;2022-09-12T01:17:30;27.27;;;15.33;;
19804;SDS011;10062;51.052;13.756;2022-09-12T01:23:36;22.83;;;13.80;;
19804;SDS011;10062;51.052;13.756;2022-09-12T01:26:42;25.00;;;15.40;;
19804;SDS011;10062;51.052;13.756;2022-09-12T01:29:40;22.97;;;16.23;;
19804;SDS011;10062;51.052;13.756;2022-09-12T01:32:27;26.07;;;16.67;;
19804;SDS011;10062;51.052;13.756;2022-09-12T01:35:05;20.80;;;13.97;;
19804;SDS011;10062;51.052;13.756;2022-09-12T01:37:46;27.53;;;15.57;;
19804;SDS011;10062;51.052;13.756;2022-09-12T01:40:30;24.87;;;15.97;;
19804;SDS011;10062;51.052;13.756;2022-09-12T01:43:07;23.10;;;14.63;;
19804;SDS011;10062;51.052;13.756;2022-09-12T01:45:49;25.47;;;15.33;;
19804;SDS011;10062;51.052;13.756;2022-09-12T01:48:28;23.63;;;14.87;;
19804;SDS011;10062;51.052;13.756;2022-09-12T01:51:06;27.53;;;16.63;;
19804;SDS011;10062;51.052;13.756;2022-09-12T01:53:43;26.20;;;17.27;;
19804;SDS011;10062;51.052;13.756;2022-09-12T01:56:19;26.47;;;16.20;;
19804;SDS011;10062;51.052;13.756;2022-09-12T01:58:57;27.97;;;16.67;;
19804;SDS011;10062;51.052;13.756;2022-09-12T02:01:35;25.63;;;16.97;;
19804;SDS011;10062;51.052;13.756;2022-09-12T02:04:16;29.13;;;17.20;;
19804;SDS011;10062;51.052;13.756;2022-09-12T02:06:51;27.97;;;15.93;;
19804;SDS011;10062;51.052;13.756;2022-09-12T02:09:26;28.53;;;17.77;;
19804;SDS011;10062;51.052;13.756;2022-09-12T02:12:05;29.97;;;17.33;;
19804;SDS011;10062;51.052;13.756;2022-09-12T02:14:41;24.50;;;16.70;;
19804;SDS011;10062;51.052;13.756;2022-09-12T02:17:17;28.03;;;16.93;;
19804;SDS011;10062;51.052;13.756;2022-09-12T02:19:54;25.23;;;16.40;;
19804;SDS011;10062;51.052;13.756;2022-09-12T02:22:30;25.83;;;16.73;;
19804;SDS011;10062;51.052;13.756;2022-09-12T02:25:06;26.43;;;17.17;;
19804;SDS011;10062;51.052;13.756;2022-09-12T02:27:41;28.37;;;17.47;;
19804;SDS011;10062;51.052;13.756;2022-09-12T02:30:17;27.40;;;16.87;;
19804;SDS011;10062;51.052;13.756;2022-09-12T02:32:53;29.07;;;16.30;;
19804;SDS011;10062;51.052;13.756;2022-09-12T02:35:32;24.47;;;15.73;;
19804;SDS011;10062;51.052;13.756;2022-09-12T02:38:10;27.87;;;16.90;;
19804;SDS011;10062;51.052;13.756;2022-09-12T02:40:46;30.77;;;17.10;;
19804;SDS011;10062;51.052;13.756;2022-09-12T02:43:18;28.37;;;16.73;;
19804;SDS011;10062;51.052;13.756;2022-09-12T02:45:50;27.53;;;17.50;;
19804;SDS011;10062;51.052;13.756;2022-09-12T02:48:22;25.13;;;17.33;;
19804;SDS011;10062;51.052;13.756;2022-09-12T02:50:58;31.47;;;18.67;;
19804;SDS011;10062;51.052;13.756;2022-09-12T02:53:30;29.93;;;18.63;;
19804;SDS011;10062;51.052;13.756;2022-09-12T02:56:04;30.20;;;17.30;;
19804;SDS011;10062;51.052;13.756;2022-09-12T02:58:39;28.13;;;17.13;;
19804;SDS011;10062;51.052;13.756;2022-09-12T03:01:12;27.17;;;16.67;;
19804;SDS011;10062;51.052;13.756;2022-09-12T03:03:57;29.57;;;18.83;;
19804;SDS011;10062;51.052;13.756;2022-09-12T03:06:43;28.40;;;17.20;;
19804;SDS011;10062;51.052;13.756;2022-09-12T03:09:25;29.77;;;18.30;;
19804;SDS011;10062;51.052;13.756;2022-09-12T03:12:09;26.10;;;18.27;;
19804;SDS011;10062;51.052;13.756;2022-09-12T03:14:55;30.53;;;17.53;;
19804;SDS011;10062;51.052;13.756;2022-09-12T03:17:41;32.90;;;20.03;;
19804;SDS011;10062;51.052;13.756;2022-09-12T03:20:20;27.93;;;17.07;;
19804;SDS011;10062;51.052;13.756;2022-09-12T03:23:01;36.13;;;18.73;;
19804;SDS011;10062;51.052;13.756;2022-09-12T03:25:39;29.47;;;19.03;;
19804;SDS011;10062;51.052;13.756;2022-09-12T03:28:17;28.47;;;18.27;;
19804;SDS011;10062;51.052;13.756;2022-09-12T03:30:51;29.23;;;17.77;;
19804;SDS011;10062;51.052;13.756;2022-09-12T03:33:25;30.63;;;18.57;;
19804;SDS011;10062;51.052;13.756;2022-09-12T03:35:57;25.70;;;17.63;;
19804;SDS011;10062;51.052;13.756;2022-09-12T03:38:30;31.67;;;17.00;;
19804;SDS011;10062;51.052;13.756;2022-09-12T03:41:01;29.70;;;18.67;;
19804;SDS011;10062;51.052;13.756;2022-09-12T03:43:33;29.87;;;18.10;;
19804;SDS011;10062;51.052;13.756;2022-09-12T03:46:05;29.63;;;18.13;;
19804;SDS011;10062;51.052;13.756;2022-09-12T03:48:37;31.13;;;18.50;;
19804;SDS011;10062;51.052;13.756;2022-09-12T03:51:09;28.43;;;17.63;;
19804;SDS011;10062;51.052;13.756;2022-09-12T03:53:42;27.40;;;18.00;;
19804;SDS011;10062;51.052;13.756;2022-09-12T03:56:14;34.27;;;19.33;;
19804;SDS011;10062;51.052;13.756;2022-09-12T03:58:46;29.53;;;18.13;;
19804;SDS011;10062;51.052;13.756;2022-09-12T04:01:18;33.33;;;20.43;;
19804;SDS011;10062;51.052;13.756;2022-09-12T04:03:50;29.77;;;17.73;;
19804;SDS011;10062;51.052;13.756;2022-09-12T04:06:23;31.20;;;19.23;;
19804;SDS011;10062;51.052;13.756;2022-09-12T04:08:56;41.10;;;23.47;;
19804;SDS011;10062;51.052;13.756;2022-09-12T04:11:27;32.20;;;19.10;;
19804;SDS011;10062;51.052;13.756;2022-09-12T04:14:01;32.20;;;18.83;;
19804;SDS011;10062;51.052;13.756;2022-09-12T04:16:32;31.93;;;19.07;;
19804;SDS011;10062;51.052;13.756;2022-09-12T04:19:04;29.63;;;19.40;;
19804;SDS011;10062;51.052;13.756;2022-09-12T04:21:36;33.93;;;18.83;;
19804;SDS011;10062;51.052;13.756;2022-09-12T04:24:09;34.70;;;19.80;;
19804;SDS011;10062;51.052;13.756;2022-09-12T04:26:41;31.30;;;18.80;;
19804;SDS011;10062;51.052;13.756;2022-09-12T04:29:13;32.43;;;19.43;;
19804;SDS011;10062;51.052;13.756;2022-09-12T04:31:45;31.37;;;20.93;;
19804;SDS011;10062;51.052;13.756;2022-09-12T04:34:16;28.20;;;19.33;;
19804;SDS011;10062;51.052;13.756;2022-09-12T04:36:48;30.87;;;19.33;;
19804;SDS011;10062;51.052;13.756;2022-09-12T04:39:21;44.57;;;29.67;;
19804;SDS011;10062;51.052;13.756;2022-09-12T04:41:53;30.60;;;20.37;;
19804;SDS011;10062;51.052;13.756;2022-09-12T04:44:24;44.30;;;27.53;;
19804;SDS011;10062;51.052;13.756;2022-09-12T04:46:56;35.10;;;20.70;;
19804;SDS011;10062;51.052;13.756;2022-09-12T04:49:28;34.77;;;19.90;;
19804;SDS011;10062;51.052;13.756;2022-09-12T04:51:59;34.97;;;22.23;;
19804;SDS011;10062;51.052;13.756;2022-09-12T04:54:33;30.70;;;19.13;;
19804;SDS011;10062;51.052;13.756;2022-09-12T04:57:04;31.20;;;20.30;;
19804;SDS011;10062;51.052;13.756;2022-09-12T04:59:36;34.40;;;20.17;;
19804;SDS011;10062;51.052;13.756;2022-09-12T05:02:09;36.57;;;20.27;;
19804;SDS011;10062;51.052;13.756;2022-09-12T05:04:40;32.07;;;20.57;;
19804;SDS011;10062;51.052;13.756;2022-09-12T05:07:12;33.83;;;20.73;;
19804;SDS011;10062;51.052;13.756;2022-09-12T05:09:45;32.17;;;19.90;;
19804;SDS011;10062;51.052;13.756;2022-09-12T05:12:17;32.47;;;19.77;;
19804;SDS011;10062;51.052;13.756;2022-09-12T05:14:49;33.60;;;20.40;;
19804;SDS011;10062;51.052;13.756;2022-09-12T05:17:20;33.00;;;18.93;;
19804;SDS011;10062;51.052;13.756;2022-09-12T05:19:52;33.00;;;20.13;;
19804;SDS011;10062;51.052;13.756;2022-09-12T05:22:24;34.03;;;19.50;;
19804;SDS011;10062;51.052;13.756;2022-09-12T05:24:57;34.67;;;20.37;;
19804;SDS011;10062;51.052;13.756;2022-09-12T05:27:29;32.93;;;19.23;;
19804;SDS011;10062;51.052;13.756;2022-09-12T05:30:00;31.87;;;19.37;;
19804;SDS011;10062;51.052;13.756;2022-09-12T05:32:32;32.83;;;18.40;;
19804;SDS011;10062;51.052;13.756;2022-09-12T05:35:04;33.03;;;20.63;;
19804;SDS011;10062;51.052;13.756;2022-09-12T05:37:36;33.23;;;18.93;;
19804;SDS011;10062;51.052;13.756;2022-09-12T05:40:10;34.63;;;20.80;;
19804;SDS011;10062;51.052;13.756;2022-09-12T05:42:45;33.57;;;21.57;;
19804;SDS011;10062;51.052;13.756;2022-09-12T05:45:17;32.27;;;18.30;;
19804;SDS011;10062;51.052;13.756;2022-09-12T05:47:48;34.70;;;20.57;;
19804;SDS011;10062;51.052;13.756;2022-09-12T05:50:20;34.40;;;18.30;;
19804;SDS011;10062;51.052;13.756;2022-09-12T05:52:51;31.97;;;19.43;;
19804;SDS011;10062;51.052;13.756;2022-09-12T05:55:25;39.63;;;21.30;;
19804;SDS011;10062;51.052;13.756;2022-09-12T05:57:57;35.37;;;20.70;;
19804;SDS011;10062;51.052;13.756;2022-09-12T06:00:28;33.83;;;20.07;;
19804;SDS011;10062;51.052;13.756;2022-09-12T06:03:00;32.77;;;19.53;;
19804;SDS011;10062;51.052;13.756;2022-09-12T06:05:31;30.90;;;18.77;;
19804;SDS011;10062;51.052;13.756;2022-09-12T06:08:04;32.17;;;20.77;;
19804;SDS011;10062;51.052;13.756;2022-09-12T06:10:37;31.87;;;18.53;;
19804;SDS011;10062;51.052;13.756;2022-09-12T06:13:09;29.07;;;18.90;;
19804;SDS011;10062;51.052;13.756;2022-09-12T06:15:41;28.57;;;18.93;;
19804;SDS011;10062;51.052;13.756;2022-09-12T06:18:13;30.20;;;19.77;;
19804;SDS011;10062;51.052;13.756;2022-09-12T06:20:44;36.60;;;23.53;;
19804;SDS011;10062;51.052;13.756;2022-09-12T06:23:16;35.00;;;20.80;;
19804;SDS011;10062;51.052;13.756;2022-09-12T06:25:49;31.10;;;19.40;;
19804;SDS011;10062;51.052;13.756;2022-09-12T06:28:21;33.43;;;20.00;;
19804;SDS011;10062;51.052;13.756;2022-09-12T06:30:59;35.37;;;20.07;;
19804;SDS011;10062;51.052;13.756;2022-09-12T06:33:34;29.17;;;18.17;;
19804;SDS011;10062;51.052;13.756;2022-09-12T06:36:07;35.30;;;19.97;;
19804;SDS011;10062;51.052;13.756;2022-09-12T06:38:41;31.73;;;19.73;;
19804;SDS011;10062;51.052;13.756;2022-09-12T06:41:14;61.87;;;38.63;;
19804;SDS011;10062;51.052;13.756;2022-09-12T06:43:47;42.73;;;24.87;;
19804;SDS011;10062;51.052;13.756;2022-09-12T06:46:19;31.63;;;18.83;;
19804;SDS011;10062;51.052;13.756;2022-09-12T06:48:51;29.97;;;17.50;;
19804;SDS011;10062;51.052;13.756;2022-09-12T06:51:23;30.20;;;18.03;;
19804;SDS011;10062;51.052;13.756;2022-09-12T06:53:55;26.57;;;16.83;;
19804;SDS011;10062;51.052;13.756;2022-09-12T06:56:29;28.87;;;17.87;;
19804;SDS011;10062;51.052;13.756;2022-09-12T06:59:01;28.40;;;16.90;;
19804;SDS011;10062;51.052;13.756;2022-09-12T07:01:33;28.87;;;17.10;;
19804;SDS011;10062;51.052;13.756;2022-09-12T07:04:05;27.20;;;17.03;;
19804;SDS011;10062;51.052;13.756;2022-09-12T07:06:37;24.70;;;16.43;;
19804;SDS011;10062;51.052;13.756;2022-09-12T07:09:11;27.87;;;17.20;;
19804;SDS011;10062;51.052;13.756;2022-09-12T07:11:47;25.80;;;16.17;;
19804;SDS011;10062;51.052;13.756;2022-09-12T07:14:19;27.40;;;15.97;;
19804;SDS011;10062;51.052;13.756;2022-09-12T07:16:50;28.77;;;16.30;;
19804;SDS011;10062;51.052;13.756;2022-09-12T07:19:22;27.57;;;16.00;;
19804;SDS011;10062;51.052;13.756;2022-09-12T07:21:54;24.93;;;16.13;;
19804;SDS011;10062;51.052;13.756;2022-09-12T07:24:26;23.33;;;15.87;;
19804;SDS011;10062;51.052;13.756;2022-09-12T07:26:59;27.00;;;16.80;;
19804;SDS011;10062;51.052;13.756;2022-09-12T07:29:30;25.47;;;15.87;;
19804;SDS011;10062;51.052;13.756;2022-09-12T07:32:02;27.10;;;16.43;;
19804;SDS011;10062;51.052;13.756;2022-09-12T07:34:34;22.90;;;15.23;;
19804;SDS011;10062;51.052;13.756;2022-09-12T07:37:06;23.20;;;15.17;;
19804;SDS011;10062;51.052;13.756;2022-09-12T07:39:38;24.07;;;16.13;;
19804;SDS011;10062;51.052;13.756;2022-09-12T07:42:11;23.13;;;14.50;;
19804;SDS011;10062;51.052;13.756;2022-09-12T07:44:43;24.17;;;14.83;;
19804;SDS011;10062;51.052;13.756;2022-09-12T07:47:15;22.40;;;14.50;;
19804;SDS011;10062;51.052;13.756;2022-09-12T07:49:47;20.67;;;13.93;;
19804;SDS011;10062;51.052;13.756;2022-09-12T07:52:19;20.50;;;13.60;;
19804;SDS011;10062;51.052;13.756;2022-09-12T07:54:51;20.00;;;13.90;;
19804;SDS011;10062;51.052;13.756;2022-09-12T07:57:24;15.70;;;11.57;;
19804;SDS011;10062;51.052;13.756;2022-09-12T07:59:55;18.07;;;11.60;;
19804;SDS011;10062;51.052;13.756;2022-09-12T08:02:27;17.73;;;12.23;;
19804;SDS011;10062;51.052;13.756;2022-09-12T08:04:59;16.53;;;12.50;;
19804;SDS011;10062;51.052;13.756;2022-09-12T08:07:31;19.13;;;12.17;;
19804;SDS011;10062;51.052;13.756;2022-09-12T08:10:04;19.33;;;11.83;;
19804;SDS011;10062;51.052;13.756;2022-09-12T08:12:37;15.53;;;11.70;;
19804;SDS011;10062;51.052;13.756;2022-09-12T08:15:09;15.43;;;11.23;;
19804;SDS011;10062;51.052;13.756;2022-09-12T08:17:41;19.47;;;11.53;;
19804;SDS011;10062;51.052;13.756;2022-09-12T08:20:13;15.77;;;10.77;;
19804;SDS011;10062;51.052;13.756;2022-09-12T08:22:45;12.77;;;9.63;;
19804;SDS011;10062;51.052;13.756;2022-09-12T08:25:16;15.47;;;9.80;;
19804;SDS011;10062;51.052;13.756;2022-09-12T08:27:49;15.40;;;10.87;;
19804;SDS011;10062;51.052;13.756;2022-09-12T08:30:21;14.93;;;9.83;;
19804;SDS011;10062;51.052;13.756;2022-09-12T08:32:53;14.10;;;9.60;;
19804;SDS011;10062;51.052;13.756;2022-09-12T08:35:25;11.20;;;8.47;;
19804;SDS011;10062;51.052;13.756;2022-09-12T08:37:56;11.43;;;8.77;;
19804;SDS011;10062;51.052;13.756;2022-09-12T08:40:28;10.93;;;8.13;;
19804;SDS011;10062;51.052;13.756;2022-09-12T08:43:02;12.63;;;8.30;;
19804;SDS011;10062;51.052;13.756;2022-09-12T08:45:46;13.03;;;7.10;;
19804;SDS011;10062;51.052;13.756;2022-09-12T08:48:24;8.02;;;6.50;;
19804;SDS011;10062;51.052;13.756;2022-09-12T08:50:56;10.25;;;6.78;;
19804;SDS011;10062;51.052;13.756;2022-09-12T08:53:29;7.43;;;6.00;;
19804;SDS011;10062;51.052;13.756;2022-09-12T08:56:04;8.95;;;6.72;;
19804;SDS011;10062;51.052;13.756;2022-09-12T08:58:42;7.47;;;6.20;;
19804;SDS011;10062;51.052;13.756;2022-09-12T09:01:19;8.82;;;6.18;;
19804;SDS011;10062;51.052;13.756;2022-09-12T09:04:07;8.30;;;4.97;;
19804;SDS011;10062;51.052;13.756;2022-09-12T09:06:57;7.80;;;6.05;;
19804;SDS011;10062;51.052;13.756;2022-09-12T09:09:40;7.72;;;4.72;;
19804;SDS011;10062;51.052;13.756;2022-09-12T09:12:23;6.07;;;4.32;;
19804;SDS011;10062;51.052;13.756;2022-09-12T09:15:10;10.93;;;4.85;;
19804;SDS011;10062;51.052;13.756;2022-09-12T09:17:51;6.68;;;4.53;;
19804;SDS011;10062;51.052;13.756;2022-09-12T09:20:30;6.60;;;4.30;;
19804;SDS011;10062;51.052;13.756;2022-09-12T09:23:06;7.43;;;4.55;;
19804;SDS011;10062;51.052;13.756;2022-09-12T09:25:47;7.07;;;4.00;;
19804;SDS011;10062;51.052;13.756;2022-09-12T09:28:24;5.60;;;3.65;;
19804;SDS011;10062;51.052;13.756;2022-09-12T09:31:07;4.82;;;3.80;;
19804;SDS011;10062;51.052;13.756;2022-09-12T09:33:45;4.75;;;4.03;;
19804;SDS011;10062;51.052;13.756;2022-09-12T09:36:20;5.60;;;4.10;;
19804;SDS011;10062;51.052;13.756;2022-09-12T09:38:55;5.60;;;3.67;;
19804;SDS011;10062;51.052;13.756;2022-09-12T09:41:35;4.47;;;3.38;;
19804;SDS011;10062;51.052;13.756;2022-09-12T09:44:15;6.55;;;3.53;;
19804;SDS011;10062;51.052;13.756;2022-09-12T09:46:49;4.88;;;3.40;;
19804;SDS011;10062;51.052;13.756;2022-09-12T09:49:24;5.60;;;3.42;;
19804;SDS011;10062;51.052;13.756;2022-09-12T09:51:58;4.25;;;2.83;;
19804;SDS011;10062;51.052;13.756;2022-09-12T09:54:32;8.02;;;5.30;;
19804;SDS011;10062;51.052;13.756;2022-09-12T10:00:19;4.30;;;2.10;;
19804;SDS011;10062;51.052;13.756;2022-09-12T10:03:01;3.05;;;2.40;;
19804;SDS011;10062;51.052;13.756;2022-09-12T10:05:43;5.15;;;3.90;;
19804;SDS011;10062;51.052;13.756;2022-09-12T10:08:21;3.25;;;2.47;;
19804;SDS011;10062;51.052;13.756;2022-09-12T10:10:56;4.57;;;2.47;;
19804;SDS011;10062;51.052;13.756;2022-09-12T10:13:37;3.95;;;2.42;;
19804;SDS011;10062;51.052;13.756;2022-09-12T10:16:18;3.47;;;2.40;;
19804;SDS011;10062;51.052;13.756;2022-09-12T10:18:53;4.50;;;2.45;;
19804;SDS011;10062;51.052;13.756;2022-09-12T10:21:27;3.33;;;1.83;;
19804;SDS011;10062;51.052;13.756;2022-09-12T10:24:10;5.32;;;1.90;;
19804;SDS011;10062;51.052;13.756;2022-09-12T10:26:50;3.92;;;1.90;;
19804;SDS011;10062;51.052;13.756;2022-09-12T10:29:25;7.10;;;2.50;;
19804;SDS011;10062;51.052;13.756;2022-09-12T10:32:01;2.63;;;1.80;;
19804;SDS011;10062;51.052;13.756;2022-09-12T10:34:36;3.05;;;2.28;;
19804;SDS011;10062;51.052;13.756;2022-09-12T10:37:16;3.25;;;2.13;;
19804;SDS011;10062;51.052;13.756;2022-09-12T10:39:53;4.20;;;2.28;;
19804;SDS011;10062;51.052;13.756;2022-09-12T10:45:20;7.07;;;2.83;;
19804;SDS011;10062;51.052;13.756;2022-09-12T10:47:54;4.72;;;2.67;;
19804;SDS011;10062;51.052;13.756;2022-09-12T10:50:30;5.43;;;2.60;;
19804;SDS011;10062;51.052;13.756;2022-09-12T10:53:12;8.00;;;3.40;;
19804;SDS011;10062;51.052;13.756;2022-09-12T10:56:00;4.20;;;2.30;;
19804;SDS011;10062;51.052;13.756;2022-09-12T10:58:35;5.68;;;2.60;;
19804;SDS011;10062;51.052;13.756;2022-09-12T11:01:27;4.05;;;2.17;;
19804;SDS011;10062;51.052;13.756;2022-09-12T11:04:13;2.95;;;1.77;;
19804;SDS011;10062;51.052;13.756;2022-09-12T11:07:23;3.45;;;1.70;;
19804;SDS011;10062;51.052;13.756;2022-09-12T11:10:04;3.97;;;1.75;;
19804;SDS011;10062;51.052;13.756;2022-09-12T11:12:47;3.50;;;1.77;;
19804;SDS011;10062;51.052;13.756;2022-09-12T11:15:32;3.08;;;2.03;;
19804;SDS011;10062;51.052;13.756;2022-09-12T11:18:16;2.55;;;1.60;;
19804;SDS011;10062;51.052;13.756;2022-09-12T11:21:07;4.40;;;1.50;;
19804;SDS011;10062;51.052;13.756;2022-09-12T11:23:56;2.75;;;1.35;;
19804;SDS011;10062;51.052;13.756;2022-09-12T11:26:42;2.20;;;1.20;;
19804;SDS011;10062;51.052;13.756;2022-09-12T11:29:24;1.92;;;1.27;;
19804;SDS011;10062;51.052;13.756;2022-09-12T11:32:09;2.90;;;1.10;;
19804;SDS011;10062;51.052;13.756;2022-09-12T11:34:54;1.65;;;0.95;;
19804;SDS011;10062;51.052;13.756;2022-09-12T11:37:37;2.38;;;1.13;;
19804;SDS011;10062;51.052;13.756;2022-09-12T11:40:22;1.75;;;1.17;;
19804;SDS011;10062;51.052;13.756;2022-09-12T11:43:00;1.83;;;1.15;;
19804;SDS011;10062;51.052;13.756;2022-09-12T11:45:38;2.67;;;1.20;;
19804;SDS011;10062;51.052;13.756;2022-09-12T11:48:15;4.90;;;1.35;;
19804;SDS011;10062;51.052;13.756;2022-09-12T11:50:53;2.20;;;1.27;;
19804;SDS011;10062;51.052;13.756;2022-09-12T11:53:26;4.35;;;1.92;;
19804;SDS011;10062;51.052;13.756;2022-09-12T11:56:05;3.25;;;1.70;;
19804;SDS011;10062;51.052;13.756;2022-09-12T11:58:43;2.88;;;1.42;;
19804;SDS011;10062;51.052;13.756;2022-09-12T12:01:22;3.20;;;1.50;;
19804;SDS011;10062;51.052;13.756;2022-09-12T12:03:58;2.30;;;1.42;;
19804;SDS011;10062;51.052;13.756;2022-09-12T12:06:35;2.28;;;1.52;;
19804;SDS011;10062;51.052;13.756;2022-09-12T12:09:17;2.53;;;1.40;;
19804;SDS011;10062;51.052;13.756;2022-09-12T12:11:51;2.58;;;1.40;;
19804;SDS011;10062;51.052;13.756;2022-09-12T12:14:27;2.47;;;1.58;;
19804;SDS011;10062;51.052;13.756;2022-09-12T12:17:03;5.53;;;1.95;;
19804;SDS011;10062;51.052;13.756;2022-09-12T12:19:36;5.25;;;2.42;;
19804;SDS011;10062;51.052;13.756;2022-09-12T12:22:13;3.47;;;1.67;;
19804;SDS011;10062;51.052;13.756;2022-09-12T12:24:52;2.10;;;1.30;;
19804;SDS011;10062;51.052;13.756;2022-09-12T12:27:48;3.53;;;1.58;;
19804;SDS011;10062;51.052;13.756;2022-09-12T12:36:34;3.58;;;1.73;;
19804;SDS011;10062;51.052;13.756;2022-09-12T12:46:04;1.80;;;1.20;;
19804;SDS011;10062;51.052;13.756;2022-09-12T12:54:31;3.08;;;1.42;;
19804;SDS011;10062;51.052;13.756;2022-09-12T12:57:19;2.50;;;1.30;;
19804;SDS011;10062;51.052;13.756;2022-09-12T13:00:00;2.70;;;1.10;;
19804;SDS011;10062;51.052;13.756;2022-09-12T13:02:38;4.53;;;1.88;;
19804;SDS011;10062;51.052;13.756;2022-09-12T13:05:19;2.55;;;1.30;;
19804;SDS011;10062;51.052;13.756;2022-09-12T13:07:54;2.03;;;1.10;;
19804;SDS011;10062;51.052;13.756;2022-09-12T13:10:28;3.53;;;1.30;;
19804;SDS011;10062;51.052;13.756;2022-09-12T13:13:01;2.17;;;1.45;;
19804;SDS011;10062;51.052;13.756;2022-09-12T13:15:49;2.83;;;1.13;;
19804;SDS011;10062;51.052;13.756;2022-09-12T13:18:22;2.97;;;1.48;;
19804;SDS011;10062;51.052;13.756;2022-09-12T13:21:01;4.28;;;1.58;;
19804;SDS011;10062;51.052;13.756;2022-09-12T13:23:39;3.35;;;1.40;;
19804;SDS011;10062;51.052;13.756;2022-09-12T13:26:11;5.75;;;1.30;;
19804;SDS011;10062;51.052;13.756;2022-09-12T13:28:44;2.95;;;1.35;;
19804;SDS011;10062;51.052;13.756;2022-09-12T13:31:18;2.08;;;1.35;;
19804;SDS011;10062;51.052;13.756;2022-09-12T13:33:53;2.55;;;1.55;;
19804;SDS011;10062;51.052;13.756;2022-09-12T13:36:35;4.72;;;1.60;;
19804;SDS011;10062;51.052;13.756;2022-09-12T13:39:14;2.70;;;1.48;;
19804;SDS011;10062;51.052;13.756;2022-09-12T13:41:53;2.20;;;1.05;;
19804;SDS011;10062;51.052;13.756;2022-09-12T13:44:46;1.95;;;1.20;;
19804;SDS011;10062;51.052;13.756;2022-09-12T13:47:22;1.55;;;1.17;;
19804;SDS011;10062;51.052;13.756;2022-09-12T13:49:58;3.85;;;1.40;;
19804;SDS011;10062;51.052;13.756;2022-09-12T13:52:32;3.70;;;1.40;;
19804;SDS011;10062;51.052;13.756;2022-09-12T13:55:05;3.20;;;1.10;;
19804;SDS011;10062;51.052;13.756;2022-09-12T13:57:54;1.80;;;0.98;;
19804;SDS011;10062;51.052;13.756;2022-09-12T14:00:27;3.60;;;2.05;;
19804;SDS011;10062;51.052;13.756;2022-09-12T14:03:08;2.40;;;1.40;;
19804;SDS011;10062;51.052;13.756;2022-09-12T14:06:13;2.22;;;0.90;;
19804;SDS011;10062;51.052;13.756;2022-09-12T14:08:48;3.33;;;1.35;;
19804;SDS011;10062;51.052;13.756;2022-09-12T14:11:22;1.92;;;1.30;;
19804;SDS011;10062;51.052;13.756;2022-09-12T14:13:56;6.03;;;1.60;;
19804;SDS011;10062;51.052;13.756;2022-09-12T14:16:29;2.38;;;1.35;;
19804;SDS011;10062;51.052;13.756;2022-09-12T14:19:05;1.73;;;1.00;;
19804;SDS011;10062;51.052;13.756;2022-09-12T14:21:39;3.25;;;1.33;;
19804;SDS011;10062;51.052;13.756;2022-09-12T14:24:11;2.90;;;1.40;;
19804;SDS011;10062;51.052;13.756;2022-09-12T14:26:43;2.55;;;1.15;;
19804;SDS011;10062;51.052;13.756;2022-09-12T14:29:16;1.80;;;1.30;;
19804;SDS011;10062;51.052;13.756;2022-09-12T14:31:58;6.63;;;2.28;;
19804;SDS011;10062;51.052;13.756;2022-09-12T14:34:33;1.65;;;1.10;;
19804;SDS011;10062;51.052;13.756;2022-09-12T14:37:05;2.33;;;1.20;;
19804;SDS011;10062;51.052;13.756;2022-09-12T14:39:38;4.55;;;1.50;;
19804;SDS011;10062;51.052;13.756;2022-09-12T14:42:13;4.47;;;1.27;;
19804;SDS011;10062;51.052;13.756;2022-09-12T14:44:50;3.00;;;1.60;;
19804;SDS011;10062;51.052;13.756;2022-09-12T14:47:25;2.50;;;0.98;;
19804;SDS011;10062;51.052;13.756;2022-09-12T14:50:00;1.83;;;1.25;;
19804;SDS011;10062;51.052;13.756;2022-09-12T14:52:32;1.73;;;1.17;;
19804;SDS011;10062;51.052;13.756;2022-09-12T14:55:18;2.58;;;1.20;;
19804;SDS011;10062;51.052;13.756;2022-09-12T14:58:05;1.40;;;0.93;;
19804;SDS011;10062;51.052;13.756;2022-09-12T15:00:51;4.10;;;1.08;;
19804;SDS011;10062;51.052;13.756;2022-09-12T15:03:31;9.18;;;6.68;;
19804;SDS011;10062;51.052;13.756;2022-09-12T15:06:17;3.30;;;1.70;;
19804;SDS011;10062;51.052;13.756;2022-09-12T15:08:52;3.43;;;1.60;;
19804;SDS011;10062;51.052;13.756;2022-09-12T15:11:25;4.47;;;2.27;;
19804;SDS011;10062;51.052;13.756;2022-09-12T15:13:56;1.30;;;0.90;;
19804;SDS011;10062;51.052;13.756;2022-09-12T15:16:28;3.67;;;1.20;;
19804;SDS011;10062;51.052;13.756;2022-09-12T15:18:59;4.03;;;1.57;;
19804;SDS011;10062;51.052;13.756;2022-09-12T15:21:33;4.97;;;1.10;;
19804;SDS011;10062;51.052;13.756;2022-09-12T15:24:04;2.00;;;1.20;;
19804;SDS011;10062;51.052;13.756;2022-09-12T15:26:37;2.23;;;1.10;;
19804;SDS011;10062;51.052;13.756;2022-09-12T15:29:09;3.57;;;1.50;;
19804;SDS011;10062;51.052;13.756;2022-09-12T15:31:41;2.50;;;1.07;;
19804;SDS011;10062;51.052;13.756;2022-09-12T15:34:17;2.07;;;1.13;;
19804;SDS011;10062;51.052;13.756;2022-09-12T15:36:50;3.70;;;1.37;;